Bismarck, ND

9:35 PM CDT on September 03, 2015 (GMT -0500)
Pacific Avenue Bismarck | | Change Station
CLOSE
Current Station
Personal Weather Station
Location: Bismarck, ND
Elevation: 1722 ft
Nearby Weather Stations

Elev 1722 ft 46.83 °N, 100.75 °W | Updated 3 minutes ago

Clear
Clear
88.0 °F
Feels Like 85 °F
N
3.7
Wind Variable Wind from South

Today
High -- | Low -- °F
--% Chance of Precip.
Yesterday
High -- | Low -- °F
Precip. -- in
7:05 AM 8:19 PM
Waning Gibbous, 64% visible
Pressure 29.65 in
Visibility 10.0 miles
Clouds Clear
Heat Index 85 °F
Dew Point 48 °F
Humidity 25%
Rainfall 0.00 in
Snow Depth Not available.
UV 0 out of 12
Pollen 11.00 out of 12
Air Quality Not available.
Flu Activity Not available.
METAR KBIS 040152Z 19017G21KT 10SM CLR 32/09 A2968 RMK AO2 SLP038 T03220089
Pressure 29.65 in
Visibility 10.0 miles
Clouds Clear
Heat Index 85 °F
Dew Point 48 °F
Humidity 25%
Rainfall 0.00 in
Snow Depth Not available.
UV 0 out of 12
Pollen 11.00 out of 12
Air Quality Not available.
Flu Activity Not available.
METAR KBIS 040152Z 19017G21KT 10SM CLR 32/09 A2968 RMK AO2 SLP038 T03220089

10-Day Weather Forecast

×

Almanac

Astronomy

Sep. 03, 2015 Rise Set
Actual Time
Civil Twilight
Nautical Twilight
Astronomical Twilight
Moon
Length of Visible Light
Length of Day
Tomorrow will be .
, % of the Moon is Illuminated

Today's Extremes

State Highs State Lows

Community

WunderPhotos

Upload Photos

1,852,106 photos uploaded!

WunderBlogs® & News

Nearby

Air Quality

  Air Quality AQ Index Pollutant
Not available.

Snow Depth

Station Depth Elevation

Earthquake Activity

City Distance Mag. Time & Date
Minimum magnitude displayed is 2.5.

Coastal Water Temperatures

Place Temperature

Stations

Nearby Weather Stations

Station Location Temp. Windchill Dew Point Humidity Wind Precip. Elev Updated Type